Mountain Home, Texas
Current Conditions -  °F | °C
As of 8:55 AM on Saturday 20 Dec 2014 (Local Time) from KERV Reporting Station
Overcast Overcast  
Wind Chill: 42°   Ceiling: 1200
Heat Index: 45°   Visibility: 10mi
Dew Point: 41°   Wind: 5mph
Humidity: 85%   Direction: 10°N
Pressure: 30.22"   Gusts: NA
Location:  30.17°N, 99.38°W
Report Text: KERV 201455Z AUTO 01004KT 10SM OVC012 07/05 A3022 RMK AO2 T00710048
Loading
Personal Weather Stations






























Interactive Weather Map New forecast layout! Learn more

10-Day Weather Forecast

Advertisements
Track Severe Weather on mobile